Smokerun, PA (16681)

8:02 AM EDT on August 24, 2016 (GMT -0400)
The Garden | | Change Station

Elev 1578 ft 40.79 °N, 78.37 °W | Updated 24 seconds ago

Clear
Clear
54.7 °F
Feels Like 54.7 °F
N
0.0
Wind Variable Wind from SSW
Gusts 0.0 mph

Today
High -- | Low -- °F
--% Chance of Precip.
Yesterday
High -- | Low -- °F
Precip. -- in
Pressure 30.30 in
Visibility 6.0 miles
Clouds Clear
Dew Point 51 °F
Humidity 87%
Rainfall 0.00 in
Snow Depth Not available.
6:33 AM 7:57 PM
Waning Gibbous, 57% visible
METAR KFIG 241154Z AUTO 03003KT 6SM BR CLR 14/14 A3032 RMK AO2 SLP261 T01390139 10139 20117 53007
Pressure 30.30 in
Visibility 6.0 miles
Clouds Clear
Dew Point 51 °F
Humidity 87%
Rainfall 0.00 in
Snow Depth Not available.
6:33 AM 7:57 PM
Waning Gibbous, 57% visible
METAR KFIG 241154Z AUTO 03003KT 6SM BR CLR 14/14 A3032 RMK AO2 SLP261 T01390139 10139 20117 53007

10-Day Weather Forecast

Almanac

Astronomy

Aug. 24, 2016 Rise Set
Actual Time
Civil Twilight
Nautical Twilight
Astronomical Twilight
Moon
Length of Visible Light
Length of Day
Tomorrow will be .
, % of the Moon is Illuminated

Today's Extremes

State Highs State Lows

Community

WunderPhotos

Upload Photos

1,934,572 photos uploaded!

WunderBlog® & News

Nearby

Air Quality

  Air Quality AQ Index Pollutant
Not available.

Snow Depth

Station Depth Elevation

Earthquake Activity

City Distance Mag. Time & Date
Minimum magnitude displayed is 2.5.

Coastal Water Temperatures

Place Temperature

Stations

Nearby Weather Stations

Station Location Temp. Windchill Dew Point Humidity Wind Precip. Elev Updated Type
                   

Watches & Warnings

There are currently no watches in effect.